sensor_id;sensor_type;location;lat;lon;timestamp;P1;durP1;ratioP1;P2;durP2;ratioP2
64615;SDS011;51027;42.162;24.754;2022-10-16T00:01:22;19.67;;;7.50;;
64615;SDS011;51027;42.162;24.754;2022-10-16T00:03:49;16.85;;;6.90;;
64615;SDS011;51027;42.162;24.754;2022-10-16T00:06:16;19.88;;;8.80;;
64615;SDS011;51027;42.162;24.754;2022-10-16T00:08:43;19.52;;;8.48;;
64615;SDS011;51027;42.162;24.754;2022-10-16T00:11:17;18.13;;;8.20;;
64615;SDS011;51027;42.162;24.754;2022-10-16T00:13:44;20.00;;;7.78;;
64615;SDS011;51027;42.162;24.754;2022-10-16T00:16:13;17.17;;;7.60;;
64615;SDS011;51027;42.162;24.754;2022-10-16T00:18:39;18.50;;;7.65;;
64615;SDS011;51027;42.162;24.754;2022-10-16T00:21:08;21.05;;;7.75;;
64615;SDS011;51027;42.162;24.754;2022-10-16T00:23:42;20.67;;;8.80;;
64615;SDS011;51027;42.162;24.754;2022-10-16T00:26:09;20.88;;;7.45;;
64615;SDS011;51027;42.162;24.754;2022-10-16T00:28:37;19.00;;;7.88;;
64615;SDS011;51027;42.162;24.754;2022-10-16T00:31:07;17.73;;;8.30;;
64615;SDS011;51027;42.162;24.754;2022-10-16T00:33:34;19.95;;;8.50;;
64615;SDS011;51027;42.162;24.754;2022-10-16T00:36:01;18.73;;;8.45;;
64615;SDS011;51027;42.162;24.754;2022-10-16T00:38:28;21.00;;;8.75;;
64615;SDS011;51027;42.162;24.754;2022-10-16T00:40:53;19.05;;;8.73;;
64615;SDS011;51027;42.162;24.754;2022-10-16T00:46:04;19.88;;;8.45;;
64615;SDS011;51027;42.162;24.754;2022-10-16T00:48:36;20.85;;;8.50;;
64615;SDS011;51027;42.162;24.754;2022-10-16T00:51:01;18.45;;;8.38;;
64615;SDS011;51027;42.162;24.754;2022-10-16T00:53:27;17.92;;;8.10;;
64615;SDS011;51027;42.162;24.754;2022-10-16T00:55:53;18.70;;;8.15;;
64615;SDS011;51027;42.162;24.754;2022-10-16T00:58:19;19.80;;;8.07;;
64615;SDS011;51027;42.162;24.754;2022-10-16T01:00:45;21.25;;;8.60;;
64615;SDS011;51027;42.162;24.754;2022-10-16T01:03:24;20.40;;;10.63;;
64615;SDS011;51027;42.162;24.754;2022-10-16T01:08:53;23.85;;;11.20;;
64615;SDS011;51027;42.162;24.754;2022-10-16T01:14:26;19.92;;;10.20;;
64615;SDS011;51027;42.162;24.754;2022-10-16T01:17:06;21.92;;;10.90;;
64615;SDS011;51027;42.162;24.754;2022-10-16T01:20:44;21.77;;;10.70;;
64615;SDS011;51027;42.162;24.754;2022-10-16T01:23:07;23.60;;;12.15;;
64615;SDS011;51027;42.162;24.754;2022-10-16T01:25:44;20.55;;;9.38;;
64615;SDS011;51027;42.162;24.754;2022-10-16T01:28:14;22.02;;;10.07;;
64615;SDS011;51027;42.162;24.754;2022-10-16T01:30:42;22.33;;;9.35;;
64615;SDS011;51027;42.162;24.754;2022-10-16T01:33:12;19.63;;;9.23;;
64615;SDS011;51027;42.162;24.754;2022-10-16T01:35:47;20.83;;;8.90;;
64615;SDS011;51027;42.162;24.754;2022-10-16T01:38:31;18.33;;;8.73;;
64615;SDS011;51027;42.162;24.754;2022-10-16T01:41:11;19.33;;;8.80;;
64615;SDS011;51027;42.162;24.754;2022-10-16T01:43:53;20.10;;;8.75;;
64615;SDS011;51027;42.162;24.754;2022-10-16T01:46:26;19.10;;;8.88;;
64615;SDS011;51027;42.162;24.754;2022-10-16T01:48:55;20.38;;;9.00;;
64615;SDS011;51027;42.162;24.754;2022-10-16T01:51:21;20.63;;;9.52;;
64615;SDS011;51027;42.162;24.754;2022-10-16T01:53:53;20.88;;;8.68;;
64615;SDS011;51027;42.162;24.754;2022-10-16T01:56:20;20.92;;;9.10;;
64615;SDS011;51027;42.162;24.754;2022-10-16T01:58:54;20.02;;;7.97;;
64615;SDS011;51027;42.162;24.754;2022-10-16T02:01:24;17.85;;;8.57;;
64615;SDS011;51027;42.162;24.754;2022-10-16T02:03:54;19.70;;;9.02;;
64615;SDS011;51027;42.162;24.754;2022-10-16T02:06:22;19.88;;;9.25;;
64615;SDS011;51027;42.162;24.754;2022-10-16T02:08:48;21.83;;;9.98;;
64615;SDS011;51027;42.162;24.754;2022-10-16T02:11:14;20.25;;;9.25;;
64615;SDS011;51027;42.162;24.754;2022-10-16T02:13:44;19.35;;;8.93;;
64615;SDS011;51027;42.162;24.754;2022-10-16T02:16:13;21.05;;;9.27;;
64615;SDS011;51027;42.162;24.754;2022-10-16T02:18:39;22.27;;;9.85;;
64615;SDS011;51027;42.162;24.754;2022-10-16T02:26:57;19.42;;;9.07;;
64615;SDS011;51027;42.162;24.754;2022-10-16T02:29:26;19.08;;;9.82;;
64615;SDS011;51027;42.162;24.754;2022-10-16T02:31:56;19.77;;;9.88;;
64615;SDS011;51027;42.162;24.754;2022-10-16T02:34:25;21.38;;;10.10;;
64615;SDS011;51027;42.162;24.754;2022-10-16T02:36:54;19.70;;;8.93;;
64615;SDS011;51027;42.162;24.754;2022-10-16T02:39:21;23.40;;;9.85;;
64615;SDS011;51027;42.162;24.754;2022-10-16T02:41:47;22.00;;;11.18;;
64615;SDS011;51027;42.162;24.754;2022-10-16T02:44:12;20.70;;;9.70;;
64615;SDS011;51027;42.162;24.754;2022-10-16T02:46:38;19.95;;;9.52;;
64615;SDS011;51027;42.162;24.754;2022-10-16T02:49:03;20.83;;;10.43;;
64615;SDS011;51027;42.162;24.754;2022-10-16T02:51:29;20.25;;;9.52;;
64615;SDS011;51027;42.162;24.754;2022-10-16T02:53:54;18.52;;;9.05;;
64615;SDS011;51027;42.162;24.754;2022-10-16T02:56:20;20.23;;;9.43;;
64615;SDS011;51027;42.162;24.754;2022-10-16T02:58:45;20.98;;;10.15;;
64615;SDS011;51027;42.162;24.754;2022-10-16T03:01:11;18.65;;;8.88;;
64615;SDS011;51027;42.162;24.754;2022-10-16T03:03:38;19.13;;;9.15;;
64615;SDS011;51027;42.162;24.754;2022-10-16T03:06:04;19.90;;;9.68;;
64615;SDS011;51027;42.162;24.754;2022-10-16T03:08:31;23.17;;;9.95;;
64615;SDS011;51027;42.162;24.754;2022-10-16T03:10:56;20.55;;;9.40;;
64615;SDS011;51027;42.162;24.754;2022-10-16T03:13:22;29.65;;;12.25;;
64615;SDS011;51027;42.162;24.754;2022-10-16T03:15:47;24.60;;;10.98;;
64615;SDS011;51027;42.162;24.754;2022-10-16T03:18:12;22.08;;;10.82;;
64615;SDS011;51027;42.162;24.754;2022-10-16T03:20:38;24.10;;;11.60;;
64615;SDS011;51027;42.162;24.754;2022-10-16T03:23:03;25.65;;;11.30;;
64615;SDS011;51027;42.162;24.754;2022-10-16T03:25:29;23.98;;;11.93;;
64615;SDS011;51027;42.162;24.754;2022-10-16T03:27:54;22.55;;;11.07;;
64615;SDS011;51027;42.162;24.754;2022-10-16T03:30:20;24.65;;;11.77;;
64615;SDS011;51027;42.162;24.754;2022-10-16T03:32:45;21.98;;;11.40;;
64615;SDS011;51027;42.162;24.754;2022-10-16T03:35:11;24.83;;;12.27;;
64615;SDS011;51027;42.162;24.754;2022-10-16T03:37:37;23.02;;;11.98;;
64615;SDS011;51027;42.162;24.754;2022-10-16T03:40:03;24.35;;;11.60;;
64615;SDS011;51027;42.162;24.754;2022-10-16T03:42:29;26.67;;;11.57;;
64615;SDS011;51027;42.162;24.754;2022-10-16T03:44:55;25.48;;;12.00;;
64615;SDS011;51027;42.162;24.754;2022-10-16T03:47:21;21.40;;;10.45;;
64615;SDS011;51027;42.162;24.754;2022-10-16T03:49:48;24.13;;;10.27;;
64615;SDS011;51027;42.162;24.754;2022-10-16T03:52:14;25.70;;;9.93;;
64615;SDS011;51027;42.162;24.754;2022-10-16T03:54:40;22.27;;;10.25;;
64615;SDS011;51027;42.162;24.754;2022-10-16T03:57:05;20.85;;;9.48;;
64615;SDS011;51027;42.162;24.754;2022-10-16T03:59:31;21.95;;;9.10;;
64615;SDS011;51027;42.162;24.754;2022-10-16T04:01:56;20.55;;;9.07;;
64615;SDS011;51027;42.162;24.754;2022-10-16T04:04:22;21.85;;;9.93;;
64615;SDS011;51027;42.162;24.754;2022-10-16T04:06:47;18.25;;;8.93;;
64615;SDS011;51027;42.162;24.754;2022-10-16T04:09:12;24.52;;;10.23;;
64615;SDS011;51027;42.162;24.754;2022-10-16T04:11:38;21.05;;;10.02;;
64615;SDS011;51027;42.162;24.754;2022-10-16T04:14:04;21.23;;;9.70;;
64615;SDS011;51027;42.162;24.754;2022-10-16T04:16:29;20.13;;;9.52;;
64615;SDS011;51027;42.162;24.754;2022-10-16T04:18:54;20.90;;;9.23;;
64615;SDS011;51027;42.162;24.754;2022-10-16T04:21:20;20.60;;;10.00;;
64615;SDS011;51027;42.162;24.754;2022-10-16T04:23:45;21.42;;;9.15;;
64615;SDS011;51027;42.162;24.754;2022-10-16T04:26:11;19.55;;;8.88;;
64615;SDS011;51027;42.162;24.754;2022-10-16T04:28:37;21.50;;;9.30;;
64615;SDS011;51027;42.162;24.754;2022-10-16T04:31:06;22.15;;;8.68;;
64615;SDS011;51027;42.162;24.754;2022-10-16T04:33:31;22.83;;;9.13;;
64615;SDS011;51027;42.162;24.754;2022-10-16T04:35:58;21.23;;;9.15;;
64615;SDS011;51027;42.162;24.754;2022-10-16T04:38:27;22.92;;;9.52;;
64615;SDS011;51027;42.162;24.754;2022-10-16T04:40:53;22.23;;;8.85;;
64615;SDS011;51027;42.162;24.754;2022-10-16T04:43:18;19.05;;;9.10;;
64615;SDS011;51027;42.162;24.754;2022-10-16T04:45:44;18.85;;;8.80;;
64615;SDS011;51027;42.162;24.754;2022-10-16T04:48:10;22.08;;;9.52;;
64615;SDS011;51027;42.162;24.754;2022-10-16T04:50:35;21.45;;;8.65;;
64615;SDS011;51027;42.162;24.754;2022-10-16T04:53:00;19.70;;;8.70;;
64615;SDS011;51027;42.162;24.754;2022-10-16T04:55:26;19.58;;;8.20;;
64615;SDS011;51027;42.162;24.754;2022-10-16T04:57:51;18.17;;;8.30;;
64615;SDS011;51027;42.162;24.754;2022-10-16T05:00:17;24.52;;;11.00;;
64615;SDS011;51027;42.162;24.754;2022-10-16T05:02:42;25.23;;;10.63;;
64615;SDS011;51027;42.162;24.754;2022-10-16T05:05:08;24.80;;;11.90;;
64615;SDS011;51027;42.162;24.754;2022-10-16T05:07:33;23.67;;;11.23;;
64615;SDS011;51027;42.162;24.754;2022-10-16T05:09:59;23.20;;;11.15;;
64615;SDS011;51027;42.162;24.754;2022-10-16T05:12:24;23.33;;;11.25;;
64615;SDS011;51027;42.162;24.754;2022-10-16T05:14:50;23.10;;;9.98;;
64615;SDS011;51027;42.162;24.754;2022-10-16T05:17:15;22.80;;;8.95;;
64615;SDS011;51027;42.162;24.754;2022-10-16T05:19:40;23.40;;;8.85;;
64615;SDS011;51027;42.162;24.754;2022-10-16T05:22:06;18.23;;;8.50;;
64615;SDS011;51027;42.162;24.754;2022-10-16T05:24:31;24.00;;;9.50;;
64615;SDS011;51027;42.162;24.754;2022-10-16T05:26:57;26.60;;;10.43;;
64615;SDS011;51027;42.162;24.754;2022-10-16T05:29:22;26.60;;;9.82;;
64615;SDS011;51027;42.162;24.754;2022-10-16T05:31:51;21.48;;;8.80;;
64615;SDS011;51027;42.162;24.754;2022-10-16T05:34:18;21.50;;;8.55;;
64615;SDS011;51027;42.162;24.754;2022-10-16T05:36:44;22.15;;;9.55;;
64615;SDS011;51027;42.162;24.754;2022-10-16T05:39:10;19.95;;;9.10;;
64615;SDS011;51027;42.162;24.754;2022-10-16T05:41:36;20.52;;;8.60;;
64615;SDS011;51027;42.162;24.754;2022-10-16T05:44:04;18.00;;;8.13;;
64615;SDS011;51027;42.162;24.754;2022-10-16T05:46:30;20.43;;;8.50;;
64615;SDS011;51027;42.162;24.754;2022-10-16T05:48:57;16.88;;;7.15;;
64615;SDS011;51027;42.162;24.754;2022-10-16T05:51:22;17.85;;;7.50;;
64615;SDS011;51027;42.162;24.754;2022-10-16T05:53:48;21.25;;;8.65;;
64615;SDS011;51027;42.162;24.754;2022-10-16T05:56:13;19.88;;;10.38;;
64615;SDS011;51027;42.162;24.754;2022-10-16T05:58:39;20.15;;;10.05;;
64615;SDS011;51027;42.162;24.754;2022-10-16T06:03:39;20.15;;;10.80;;
64615;SDS011;51027;42.162;24.754;2022-10-16T06:06:08;20.45;;;10.00;;
64615;SDS011;51027;42.162;24.754;2022-10-16T06:08:35;18.50;;;10.10;;
64615;SDS011;51027;42.162;24.754;2022-10-16T06:11:05;20.95;;;9.80;;
64615;SDS011;51027;42.162;24.754;2022-10-16T06:13:32;18.52;;;9.55;;
64615;SDS011;51027;42.162;24.754;2022-10-16T06:15:58;20.70;;;9.40;;
64615;SDS011;51027;42.162;24.754;2022-10-16T06:18:25;18.88;;;8.88;;
64615;SDS011;51027;42.162;24.754;2022-10-16T06:20:52;19.15;;;8.00;;
64615;SDS011;51027;42.162;24.754;2022-10-16T06:23:17;18.48;;;7.70;;
64615;SDS011;51027;42.162;24.754;2022-10-16T06:25:43;18.55;;;8.10;;
64615;SDS011;51027;42.162;24.754;2022-10-16T06:28:08;20.58;;;8.93;;
64615;SDS011;51027;42.162;24.754;2022-10-16T06:30:33;19.75;;;8.55;;
64615;SDS011;51027;42.162;24.754;2022-10-16T06:32:59;18.02;;;8.45;;
64615;SDS011;51027;42.162;24.754;2022-10-16T06:35:24;20.40;;;8.98;;
64615;SDS011;51027;42.162;24.754;2022-10-16T06:37:49;21.75;;;9.00;;
64615;SDS011;51027;42.162;24.754;2022-10-16T06:40:15;18.40;;;8.30;;
64615;SDS011;51027;42.162;24.754;2022-10-16T06:42:41;18.50;;;8.48;;
64615;SDS011;51027;42.162;24.754;2022-10-16T06:45:07;17.13;;;7.63;;
64615;SDS011;51027;42.162;24.754;2022-10-16T06:47:32;18.73;;;8.02;;
64615;SDS011;51027;42.162;24.754;2022-10-16T06:49:58;20.45;;;9.05;;
64615;SDS011;51027;42.162;24.754;2022-10-16T06:52:23;20.95;;;8.88;;
64615;SDS011;51027;42.162;24.754;2022-10-16T06:54:49;18.30;;;8.65;;
64615;SDS011;51027;42.162;24.754;2022-10-16T06:57:15;21.33;;;9.20;;
64615;SDS011;51027;42.162;24.754;2022-10-16T06:59:40;20.20;;;8.23;;
64615;SDS011;51027;42.162;24.754;2022-10-16T07:02:06;20.55;;;9.73;;
64615;SDS011;51027;42.162;24.754;2022-10-16T07:04:33;20.00;;;9.77;;
64615;SDS011;51027;42.162;24.754;2022-10-16T07:07:00;18.17;;;8.38;;
64615;SDS011;51027;42.162;24.754;2022-10-16T07:09:28;20.73;;;8.38;;
64615;SDS011;51027;42.162;24.754;2022-10-16T07:11:54;20.35;;;8.32;;
64615;SDS011;51027;42.162;24.754;2022-10-16T07:14:20;19.77;;;8.52;;
64615;SDS011;51027;42.162;24.754;2022-10-16T07:16:46;17.55;;;8.35;;
64615;SDS011;51027;42.162;24.754;2022-10-16T07:19:13;20.60;;;9.10;;
64615;SDS011;51027;42.162;24.754;2022-10-16T07:21:40;20.75;;;10.45;;
64615;SDS011;51027;42.162;24.754;2022-10-16T07:24:07;25.27;;;13.18;;
64615;SDS011;51027;42.162;24.754;2022-10-16T07:26:37;22.58;;;11.65;;
64615;SDS011;51027;42.162;24.754;2022-10-16T07:29:04;23.30;;;13.00;;
64615;SDS011;51027;42.162;24.754;2022-10-16T07:31:38;21.38;;;9.82;;
64615;SDS011;51027;42.162;24.754;2022-10-16T07:34:06;25.00;;;10.20;;
64615;SDS011;51027;42.162;24.754;2022-10-16T07:36:31;21.63;;;9.20;;
64615;SDS011;51027;42.162;24.754;2022-10-16T07:38:57;17.63;;;9.15;;
64615;SDS011;51027;42.162;24.754;2022-10-16T07:41:22;19.02;;;8.95;;
64615;SDS011;51027;42.162;24.754;2022-10-16T07:43:49;20.20;;;9.52;;
64615;SDS011;51027;42.162;24.754;2022-10-16T07:46:17;19.02;;;8.73;;
64615;SDS011;51027;42.162;24.754;2022-10-16T07:48:44;18.33;;;8.60;;
64615;SDS011;51027;42.162;24.754;2022-10-16T07:51:12;19.70;;;9.02;;
64615;SDS011;51027;42.162;24.754;2022-10-16T07:53:39;20.48;;;9.23;;
64615;SDS011;51027;42.162;24.754;2022-10-16T07:56:05;21.30;;;8.52;;
64615;SDS011;51027;42.162;24.754;2022-10-16T07:58:32;19.30;;;8.77;;
64615;SDS011;51027;42.162;24.754;2022-10-16T08:00:58;21.20;;;9.82;;
64615;SDS011;51027;42.162;24.754;2022-10-16T08:03:27;25.38;;;12.27;;
64615;SDS011;51027;42.162;24.754;2022-10-16T08:05:53;20.00;;;9.45;;
64615;SDS011;51027;42.162;24.754;2022-10-16T08:08:18;18.75;;;8.57;;
64615;SDS011;51027;42.162;24.754;2022-10-16T08:10:44;18.80;;;9.05;;
64615;SDS011;51027;42.162;24.754;2022-10-16T08:13:10;17.17;;;8.75;;
64615;SDS011;51027;42.162;24.754;2022-10-16T08:15:35;17.13;;;8.52;;
64615;SDS011;51027;42.162;24.754;2022-10-16T08:18:02;18.80;;;8.85;;
64615;SDS011;51027;42.162;24.754;2022-10-16T08:20:29;17.02;;;8.45;;
64615;SDS011;51027;42.162;24.754;2022-10-16T08:22:55;17.98;;;8.52;;
64615;SDS011;51027;42.162;24.754;2022-10-16T08:25:21;17.35;;;8.10;;
64615;SDS011;51027;42.162;24.754;2022-10-16T08:27:48;17.70;;;8.23;;
64615;SDS011;51027;42.162;24.754;2022-10-16T08:30:13;18.10;;;8.20;;
64615;SDS011;51027;42.162;24.754;2022-10-16T08:32:40;18.88;;;7.68;;
64615;SDS011;51027;42.162;24.754;2022-10-16T08:35:09;17.45;;;8.07;;
64615;SDS011;51027;42.162;24.754;2022-10-16T08:37:35;16.92;;;7.75;;
64615;SDS011;51027;42.162;24.754;2022-10-16T08:40:01;17.60;;;8.45;;
64615;SDS011;51027;42.162;24.754;2022-10-16T08:48:30;18.60;;;7.82;;
64615;SDS011;51027;42.162;24.754;2022-10-16T08:51:10;17.23;;;7.38;;
64615;SDS011;51027;42.162;24.754;2022-10-16T08:53:44;16.63;;;6.80;;
64615;SDS011;51027;42.162;24.754;2022-10-16T08:56:17;17.15;;;7.20;;
64615;SDS011;51027;42.162;24.754;2022-10-16T08:58:42;16.15;;;7.13;;
64615;SDS011;51027;42.162;24.754;2022-10-16T09:01:14;17.20;;;7.53;;
64615;SDS011;51027;42.162;24.754;2022-10-16T09:06:49;18.58;;;7.93;;
64615;SDS011;51027;42.162;24.754;2022-10-16T09:10:18;30.35;;;19.02;;
64615;SDS011;51027;42.162;24.754;2022-10-16T09:12:39;21.23;;;10.25;;
64615;SDS011;51027;42.162;24.754;2022-10-16T09:15:20;17.08;;;7.35;;
64615;SDS011;51027;42.162;24.754;2022-10-16T09:20:48;17.45;;;6.13;;
64615;SDS011;51027;42.162;24.754;2022-10-16T09:23:36;15.25;;;6.13;;
64615;SDS011;51027;42.162;24.754;2022-10-16T09:26:05;15.45;;;6.30;;
64615;SDS011;51027;42.162;24.754;2022-10-16T09:28:34;16.70;;;7.00;;
64615;SDS011;51027;42.162;24.754;2022-10-16T09:31:00;17.77;;;8.13;;
64615;SDS011;51027;42.162;24.754;2022-10-16T09:33:28;15.77;;;6.25;;
64615;SDS011;51027;42.162;24.754;2022-10-16T09:36:03;15.23;;;5.47;;
64615;SDS011;51027;42.162;24.754;2022-10-16T09:38:34;19.10;;;10.27;;
64615;SDS011;51027;42.162;24.754;2022-10-16T09:41:15;15.88;;;6.57;;
64615;SDS011;51027;42.162;24.754;2022-10-16T09:46:25;15.93;;;6.40;;
64615;SDS011;51027;42.162;24.754;2022-10-16T09:49:00;15.02;;;5.97;;
64615;SDS011;51027;42.162;24.754;2022-10-16T09:51:31;14.93;;;5.25;;
64615;SDS011;51027;42.162;24.754;2022-10-16T09:54:00;15.77;;;5.10;;
64615;SDS011;51027;42.162;24.754;2022-10-16T09:56:31;13.98;;;5.63;;
64615;SDS011;51027;42.162;24.754;2022-10-16T09:58:59;15.75;;;5.78;;
64615;SDS011;51027;42.162;24.754;2022-10-16T10:01:30;12.67;;;4.60;;
64615;SDS011;51027;42.162;24.754;2022-10-16T10:04:04;13.60;;;5.30;;
64615;SDS011;51027;42.162;24.754;2022-10-16T10:06:31;13.32;;;5.05;;
64615;SDS011;51027;42.162;24.754;2022-10-16T10:11:41;13.93;;;5.32;;
64615;SDS011;51027;42.162;24.754;2022-10-16T10:14:20;13.88;;;5.60;;
64615;SDS011;51027;42.162;24.754;2022-10-16T10:16:46;15.20;;;5.25;;
64615;SDS011;51027;42.162;24.754;2022-10-16T10:22:19;14.02;;;5.55;;
64615;SDS011;51027;42.162;24.754;2022-10-16T10:25:25;12.30;;;4.85;;
64615;SDS011;51027;42.162;24.754;2022-10-16T10:28:24;14.13;;;5.20;;
64615;SDS011;51027;42.162;24.754;2022-10-16T10:31:03;12.98;;;5.18;;
64615;SDS011;51027;42.162;24.754;2022-10-16T10:38:37;13.57;;;5.10;;
64615;SDS011;51027;42.162;24.754;2022-10-16T10:47:00;15.05;;;5.30;;
64615;SDS011;51027;42.162;24.754;2022-10-16T10:55:54;15.30;;;5.50;;
64615;SDS011;51027;42.162;24.754;2022-10-16T10:58:43;15.75;;;5.40;;
64615;SDS011;51027;42.162;24.754;2022-10-16T11:01:15;14.88;;;5.47;;
64615;SDS011;51027;42.162;24.754;2022-10-16T11:04:49;14.50;;;5.60;;
64615;SDS011;51027;42.162;24.754;2022-10-16T11:06:40;25.77;;;15.00;;
64615;SDS011;51027;42.162;24.754;2022-10-16T11:09:11;18.45;;;9.32;;
64615;SDS011;51027;42.162;24.754;2022-10-16T11:17:22;13.82;;;5.60;;
64615;SDS011;51027;42.162;24.754;2022-10-16T11:19:53;16.65;;;5.38;;
64615;SDS011;51027;42.162;24.754;2022-10-16T11:22:32;15.30;;;5.90;;
64615;SDS011;51027;42.162;24.754;2022-10-16T11:27:58;15.57;;;5.80;;
64615;SDS011;51027;42.162;24.754;2022-10-16T11:30:31;15.15;;;5.45;;
64615;SDS011;51027;42.162;24.754;2022-10-16T11:33:08;12.65;;;5.38;;
64615;SDS011;51027;42.162;24.754;2022-10-16T11:39:00;14.07;;;5.40;;
64615;SDS011;51027;42.162;24.754;2022-10-16T11:52:51;13.43;;;4.75;;
64615;SDS011;51027;42.162;24.754;2022-10-16T11:55:22;13.98;;;4.97;;
64615;SDS011;51027;42.162;24.754;2022-10-16T12:09:26;14.35;;;5.18;;
64615;SDS011;51027;42.162;24.754;2022-10-16T12:11:54;15.15;;;5.00;;
64615;SDS011;51027;42.162;24.754;2022-10-16T12:16:55;14.55;;;5.57;;
64615;SDS011;51027;42.162;24.754;2022-10-16T12:19:24;13.27;;;4.97;;
64615;SDS011;51027;42.162;24.754;2022-10-16T12:21:54;13.93;;;5.53;;
64615;SDS011;51027;42.162;24.754;2022-10-16T12:26:47;14.00;;;5.50;;
64615;SDS011;51027;42.162;24.754;2022-10-16T12:32:05;14.00;;;5.25;;
64615;SDS011;51027;42.162;24.754;2022-10-16T12:34:47;15.65;;;5.68;;
64615;SDS011;51027;42.162;24.754;2022-10-16T12:39:48;16.55;;;7.30;;
64615;SDS011;51027;42.162;24.754;2022-10-16T12:44:48;17.35;;;6.25;;
64615;SDS011;51027;42.162;24.754;2022-10-16T12:49:55;15.02;;;5.95;;
64615;SDS011;51027;42.162;24.754;2022-10-16T12:52:28;14.82;;;6.03;;
64615;SDS011;51027;42.162;24.754;2022-10-16T12:55:00;16.27;;;6.47;;
64615;SDS011;51027;42.162;24.754;2022-10-16T13:00:54;15.73;;;6.13;;
64615;SDS011;51027;42.162;24.754;2022-10-16T13:07:01;13.40;;;5.35;;
64615;SDS011;51027;42.162;24.754;2022-10-16T13:09:27;14.00;;;5.15;;
64615;SDS011;51027;42.162;24.754;2022-10-16T13:14:52;14.23;;;6.13;;
64615;SDS011;51027;42.162;24.754;2022-10-16T13:20:22;13.23;;;5.00;;
64615;SDS011;51027;42.162;24.754;2022-10-16T13:28:35;15.27;;;5.18;;
64615;SDS011;51027;42.162;24.754;2022-10-16T13:31:03;16.63;;;6.43;;
64615;SDS011;51027;42.162;24.754;2022-10-16T13:33:33;14.77;;;5.97;;
64615;SDS011;51027;42.162;24.754;2022-10-16T13:36:03;15.30;;;6.43;;
64615;SDS011;51027;42.162;24.754;2022-10-16T13:38:35;13.98;;;5.53;;
64615;SDS011;51027;42.162;24.754;2022-10-16T13:41:05;14.48;;;5.50;;
64615;SDS011;51027;42.162;24.754;2022-10-16T13:43:49;15.05;;;6.20;;
64615;SDS011;51027;42.162;24.754;2022-10-16T13:46:18;15.73;;;5.95;;
64615;SDS011;51027;42.162;24.754;2022-10-16T13:51:38;17.70;;;6.43;;
64615;SDS011;51027;42.162;24.754;2022-10-16T13:54:03;15.40;;;6.50;;
64615;SDS011;51027;42.162;24.754;2022-10-16T13:56:30;14.27;;;6.05;;
64615;SDS011;51027;42.162;24.754;2022-10-16T13:59:04;14.25;;;5.75;;
64615;SDS011;51027;42.162;24.754;2022-10-16T14:01:31;16.48;;;6.68;;
64615;SDS011;51027;42.162;24.754;2022-10-16T14:04:07;15.25;;;5.60;;
64615;SDS011;51027;42.162;24.754;2022-10-16T14:06:34;17.25;;;6.40;;
64615;SDS011;51027;42.162;24.754;2022-10-16T14:09:05;14.80;;;5.88;;
64615;SDS011;51027;42.162;24.754;2022-10-16T14:11:32;14.52;;;5.53;;
64615;SDS011;51027;42.162;24.754;2022-10-16T14:14:04;18.95;;;5.70;;
64615;SDS011;51027;42.162;24.754;2022-10-16T14:16:30;14.85;;;6.00;;
64615;SDS011;51027;42.162;24.754;2022-10-16T14:18:58;15.60;;;5.93;;
64615;SDS011;51027;42.162;24.754;2022-10-16T14:21:26;15.77;;;6.93;;
64615;SDS011;51027;42.162;24.754;2022-10-16T14:23:52;15.77;;;5.90;;
64615;SDS011;51027;42.162;24.754;2022-10-16T14:26:20;15.75;;;6.10;;
64615;SDS011;51027;42.162;24.754;2022-10-16T14:29:01;14.70;;;5.90;;
64615;SDS011;51027;42.162;24.754;2022-10-16T14:31:35;14.88;;;6.03;;
64615;SDS011;51027;42.162;24.754;2022-10-16T14:34:02;15.82;;;5.95;;
64615;SDS011;51027;42.162;24.754;2022-10-16T14:36:27;15.57;;;6.20;;
64615;SDS011;51027;42.162;24.754;2022-10-16T14:39:02;14.30;;;5.40;;
64615;SDS011;51027;42.162;24.754;2022-10-16T14:41:40;15.38;;;6.30;;
64615;SDS011;51027;42.162;24.754;2022-10-16T14:44:11;15.27;;;6.00;;
64615;SDS011;51027;42.162;24.754;2022-10-16T14:46:38;15.45;;;5.68;;
64615;SDS011;51027;42.162;24.754;2022-10-16T14:51:34;15.90;;;5.40;;
64615;SDS011;51027;42.162;24.754;2022-10-16T14:54:00;15.70;;;5.78;;
64615;SDS011;51027;42.162;24.754;2022-10-16T14:56:30;15.07;;;5.70;;
64615;SDS011;51027;42.162;24.754;2022-10-16T14:58:59;14.70;;;5.80;;
64615;SDS011;51027;42.162;24.754;2022-10-16T15:01:26;15.13;;;5.80;;
64615;SDS011;51027;42.162;24.754;2022-10-16T15:03:51;14.93;;;5.68;;
64615;SDS011;51027;42.162;24.754;2022-10-16T15:06:22;14.07;;;5.85;;
64615;SDS011;51027;42.162;24.754;2022-10-16T15:08:48;14.57;;;5.75;;
64615;SDS011;51027;42.162;24.754;2022-10-16T15:11:15;14.55;;;6.10;;
64615;SDS011;51027;42.162;24.754;2022-10-16T15:13:41;15.65;;;6.97;;
64615;SDS011;51027;42.162;24.754;2022-10-16T15:16:09;15.90;;;6.00;;
64615;SDS011;51027;42.162;24.754;2022-10-16T15:18:37;14.25;;;5.60;;
64615;SDS011;51027;42.162;24.754;2022-10-16T15:21:02;15.20;;;6.00;;
64615;SDS011;51027;42.162;24.754;2022-10-16T15:23:28;14.40;;;5.63;;
64615;SDS011;51027;42.162;24.754;2022-10-16T15:25:54;14.75;;;5.65;;
64615;SDS011;51027;42.162;24.754;2022-10-16T15:28:21;18.58;;;7.00;;
64615;SDS011;51027;42.162;24.754;2022-10-16T15:30:52;47.03;;;18.60;;
64615;SDS011;51027;42.162;24.754;2022-10-16T15:33:20;32.83;;;12.20;;
64615;SDS011;51027;42.162;24.754;2022-10-16T15:35:52;27.25;;;11.77;;
64615;SDS011;51027;42.162;24.754;2022-10-16T15:38:22;28.90;;;11.52;;
64615;SDS011;51027;42.162;24.754;2022-10-16T15:40:48;22.70;;;9.63;;
64615;SDS011;51027;42.162;24.754;2022-10-16T15:43:14;33.03;;;15.13;;
64615;SDS011;51027;42.162;24.754;2022-10-16T15:45:40;31.88;;;13.43;;
64615;SDS011;51027;42.162;24.754;2022-10-16T15:48:05;20.77;;;7.80;;
64615;SDS011;51027;42.162;24.754;2022-10-16T15:50:31;21.27;;;7.28;;
64615;SDS011;51027;42.162;24.754;2022-10-16T15:52:57;17.38;;;6.43;;
64615;SDS011;51027;42.162;24.754;2022-10-16T15:55:23;16.75;;;6.45;;
64615;SDS011;51027;42.162;24.754;2022-10-16T15:57:49;16.50;;;6.22;;
64615;SDS011;51027;42.162;24.754;2022-10-16T16:00:16;16.00;;;6.47;;
64615;SDS011;51027;42.162;24.754;2022-10-16T16:02:43;20.70;;;7.07;;
64615;SDS011;51027;42.162;24.754;2022-10-16T16:05:09;17.38;;;7.07;;
64615;SDS011;51027;42.162;24.754;2022-10-16T16:07:36;15.52;;;6.57;;
64615;SDS011;51027;42.162;24.754;2022-10-16T16:10:04;25.63;;;7.50;;
64615;SDS011;51027;42.162;24.754;2022-10-16T16:12:31;18.05;;;7.25;;
64615;SDS011;51027;42.162;24.754;2022-10-16T16:14:57;19.48;;;7.55;;
64615;SDS011;51027;42.162;24.754;2022-10-16T16:17:22;19.98;;;7.47;;
64615;SDS011;51027;42.162;24.754;2022-10-16T16:19:48;20.15;;;7.88;;
64615;SDS011;51027;42.162;24.754;2022-10-16T16:22:14;18.38;;;7.53;;
64615;SDS011;51027;42.162;24.754;2022-10-16T16:24:39;20.02;;;8.30;;
64615;SDS011;51027;42.162;24.754;2022-10-16T16:27:05;20.40;;;8.35;;
64615;SDS011;51027;42.162;24.754;2022-10-16T16:29:31;18.42;;;8.23;;
64615;SDS011;51027;42.162;24.754;2022-10-16T16:31:58;20.08;;;8.80;;
64615;SDS011;51027;42.162;24.754;2022-10-16T16:34:25;22.05;;;8.23;;
64615;SDS011;51027;42.162;24.754;2022-10-16T16:36:51;21.15;;;9.82;;